createdAt,value
2018-06-25T00:01:09.305Z,67.60
2018-06-25T00:03:37.610Z,67.50
2018-06-25T00:06:05.952Z,68.60
2018-06-25T00:08:34.240Z,68.00
2018-06-25T00:11:02.553Z,67.80
2018-06-25T00:13:30.844Z,67.60
2018-06-25T00:15:59.157Z,68.00
2018-06-25T00:18:27.476Z,68.20
2018-06-25T00:20:55.787Z,68.10
2018-06-25T00:23:24.081Z,68.10
2018-06-25T00:25:52.410Z,67.90
2018-06-25T00:28:20.706Z,68.30
2018-06-25T00:30:49.016Z,68.50
2018-06-25T00:33:17.307Z,68.90
2018-06-25T00:35:45.613Z,68.90
2018-06-25T00:38:13.914Z,69.00
2018-06-25T00:40:42.225Z,69.00
2018-06-25T00:43:10.521Z,69.10
2018-06-25T00:45:38.864Z,69.30
2018-06-25T00:48:07.157Z,69.50
2018-06-25T00:50:35.466Z,69.50
2018-06-25T00:53:03.764Z,70.30
2018-06-25T00:58:00.098Z,70.00
2018-06-25T01:00:28.392Z,70.00
2018-06-25T01:05:24.737Z,71.00
2018-06-25T01:07:53.071Z,71.10
2018-06-25T01:10:21.405Z,70.80
2018-06-25T01:12:49.732Z,70.60
2018-06-25T01:15:18.067Z,70.40
2018-06-25T01:17:46.364Z,70.20
2018-06-25T01:20:14.730Z,70.50
2018-06-25T01:22:43.062Z,70.80
2018-06-25T01:25:11.428Z,71.00
2018-06-25T01:27:39.742Z,71.10
2018-06-25T01:30:08.068Z,71.60
2018-06-25T01:32:36.453Z,71.60
2018-06-25T01:35:04.762Z,71.80
2018-06-25T01:37:33.097Z,72.00
2018-06-25T01:40:01.413Z,72.20
2018-06-25T01:42:29.759Z,72.30
2018-06-25T01:44:58.068Z,72.60
2018-06-25T01:47:26.410Z,72.70
2018-06-25T01:49:54.713Z,72.50
2018-06-25T01:52:23.097Z,72.70
2018-06-25T01:54:51.416Z,72.90
2018-06-25T01:59:47.762Z,73.10
2018-06-25T02:02:16.089Z,73.60
2018-06-25T02:04:44.445Z,73.80
2018-06-25T02:07:12.777Z,73.90
2018-06-25T02:09:41.090Z,73.90
2018-06-25T02:14:37.460Z,74.10
2018-06-25T02:17:05.820Z,74.30
2018-06-25T02:19:34.152Z,74.20
2018-06-25T02:22:02.500Z,74.50
2018-06-25T02:24:30.812Z,74.70
2018-06-25T02:26:59.181Z,74.80
2018-06-25T02:29:27.508Z,74.70
2018-06-25T02:31:55.848Z,74.70
2018-06-25T02:34:24.186Z,74.90
2018-06-25T02:36:52.531Z,75.00
2018-06-25T02:39:20.853Z,75.00
2018-06-25T02:41:49.211Z,75.20
2018-06-25T02:44:17.556Z,75.30
2018-06-25T02:46:45.938Z,75.50
2018-06-25T02:49:14.254Z,75.70
2018-06-25T02:51:42.610Z,75.80
2018-06-25T02:54:10.939Z,75.90
2018-06-25T02:56:39.315Z,75.90
2018-06-25T02:59:07.668Z,75.90
2018-06-25T03:01:35.992Z,76.00
2018-06-25T03:04:04.377Z,76.10
2018-06-25T03:06:32.725Z,76.30
2018-06-25T03:09:01.073Z,76.50
2018-06-25T03:11:29.387Z,76.60
2018-06-25T03:13:57.749Z,76.90
2018-06-25T03:16:26.075Z,77.10
2018-06-25T03:18:54.446Z,77.30
2018-06-25T03:21:22.768Z,77.30
2018-06-25T03:23:51.172Z,77.30
2018-06-25T03:26:19.491Z,77.30
2018-06-25T03:28:47.829Z,77.30
2018-06-25T03:31:16.133Z,77.40
2018-06-25T03:33:44.499Z,77.70
2018-06-25T03:36:12.809Z,77.80
2018-06-25T03:38:41.156Z,78.00
2018-06-25T03:41:09.552Z,77.90
2018-06-25T03:43:38.434Z,78.00
2018-06-25T03:46:06.757Z,78.00
2018-06-25T03:48:35.086Z,78.20
2018-06-25T03:51:03.458Z,77.90
2018-06-25T03:53:31.768Z,78.00
2018-06-25T03:56:00.093Z,77.40
2018-06-25T04:00:56.523Z,77.90
2018-06-25T04:03:24.849Z,77.80
2018-06-25T04:05:53.209Z,78.00
2018-06-25T04:08:21.550Z,78.10
2018-06-25T04:10:49.898Z,78.30
2018-06-25T04:13:18.229Z,78.50
2018-06-25T04:15:46.584Z,78.30
2018-06-25T04:18:14.920Z,78.80
2018-06-25T04:20:43.345Z,77.70
2018-06-25T04:23:11.634Z,77.50
2018-06-25T04:25:39.957Z,77.50
2018-06-25T04:28:08.300Z,77.40
2018-06-25T04:30:36.694Z,77.40
2018-06-25T04:33:05.413Z,77.60
2018-06-25T04:35:33.777Z,78.00
2018-06-25T04:38:02.170Z,79.10
2018-06-25T04:40:30.497Z,79.70
2018-06-25T04:42:58.842Z,79.50
2018-06-25T04:45:27.219Z,78.80
2018-06-25T04:47:55.580Z,78.80
2018-06-25T04:50:23.913Z,78.60
2018-06-25T04:52:52.236Z,78.50
2018-06-25T04:55:20.573Z,78.60
2018-06-25T04:57:48.892Z,78.90
2018-06-25T05:00:17.232Z,78.40
2018-06-25T05:02:45.597Z,78.60
2018-06-25T05:05:13.989Z,78.40
2018-06-25T05:07:42.308Z,78.60
2018-06-25T05:10:10.656Z,78.90
2018-06-25T05:12:38.972Z,78.40
2018-06-25T05:15:07.312Z,78.10
2018-06-25T05:17:35.644Z,77.40
2018-06-25T05:20:04.054Z,77.30
2018-06-25T05:22:32.381Z,77.00
2018-06-25T05:25:00.717Z,77.00
2018-06-25T05:27:29.080Z,77.00
2018-06-25T05:29:57.431Z,77.90
2018-06-25T05:32:25.861Z,77.10
2018-06-25T05:34:54.209Z,77.10
2018-06-25T05:37:29.265Z,76.90
2018-06-25T05:39:57.625Z,77.10
2018-06-25T05:42:25.946Z,77.40
2018-06-25T05:44:54.293Z,77.30
2018-06-25T05:47:22.637Z,76.60
2018-06-25T05:49:51.064Z,77.40
2018-06-25T05:52:19.429Z,76.80
2018-06-25T05:54:47.788Z,76.50
2018-06-25T05:57:16.122Z,76.70
2018-06-25T05:59:44.513Z,76.80
2018-06-25T06:02:12.924Z,77.20
2018-06-25T06:04:41.293Z,76.90
2018-06-25T06:07:09.652Z,77.40
2018-06-25T06:12:06.157Z,78.00
2018-06-25T06:14:34.496Z,78.20
2018-06-25T06:17:02.884Z,78.10
2018-06-25T06:19:31.228Z,77.30
2018-06-25T06:21:59.660Z,76.70
2018-06-25T06:24:28.555Z,76.70
2018-06-25T06:26:56.874Z,77.20
2018-06-25T06:29:25.811Z,76.90
2018-06-25T06:31:54.184Z,77.30
2018-06-25T06:34:22.560Z,77.60
2018-06-25T06:36:50.912Z,76.40
2018-06-25T06:39:19.240Z,76.00
2018-06-25T06:41:47.613Z,75.30
2018-06-25T06:44:15.987Z,75.80
2018-06-25T06:46:44.374Z,76.00
2018-06-25T06:49:12.763Z,75.10
2018-06-25T06:51:41.100Z,75.00
2018-06-25T06:54:09.444Z,75.60
2018-06-25T06:56:37.814Z,76.40
2018-06-25T06:59:06.160Z,75.90
2018-06-25T07:01:34.509Z,75.90
2018-06-25T07:04:02.842Z,75.60
2018-06-25T07:06:31.181Z,75.50
2018-06-25T07:08:59.509Z,76.60
2018-06-25T07:11:27.844Z,74.90
2018-06-25T07:13:56.186Z,75.50
2018-06-25T07:16:24.521Z,75.70
2018-06-25T07:18:52.832Z,75.80
2018-06-25T07:21:21.164Z,75.20
2018-06-25T07:23:49.477Z,75.40
2018-06-25T07:26:24.001Z,75.50
2018-06-25T07:28:52.739Z,75.50
2018-06-25T07:31:21.117Z,76.30
2018-06-25T07:33:49.422Z,76.10
2018-06-25T07:36:18.661Z,76.00
2018-06-25T07:38:46.977Z,77.40
2018-06-25T07:41:16.787Z,77.00
2018-06-25T07:43:45.197Z,76.50
2018-06-25T07:46:13.833Z,76.90
2018-06-25T07:48:42.880Z,76.70
2018-06-25T07:53:39.373Z,76.90
2018-06-25T07:56:07.671Z,76.40
2018-06-25T07:58:35.993Z,76.10
2018-06-25T08:01:04.380Z,76.20
2018-06-25T08:03:32.701Z,75.70
2018-06-25T08:06:01.068Z,76.00
2018-06-25T08:08:29.391Z,76.50
2018-06-25T08:10:57.768Z,76.10
2018-06-25T08:13:26.122Z,75.60
2018-06-25T08:15:57.436Z,75.40
2018-06-25T08:18:25.877Z,75.10
2018-06-25T08:20:54.214Z,74.00
2018-06-25T08:23:22.557Z,74.00
2018-06-25T08:25:50.905Z,73.90
2018-06-25T08:28:19.253Z,74.10
2018-06-25T08:30:47.569Z,73.40
2018-06-25T08:33:15.924Z,73.50
2018-06-25T08:35:44.289Z,73.50
2018-06-25T08:38:12.650Z,73.70
2018-06-25T08:40:41.052Z,74.70
2018-06-25T08:43:09.408Z,74.80
2018-06-25T08:45:37.734Z,75.20
2018-06-25T08:48:06.685Z,75.40
2018-06-25T08:50:35.013Z,76.20
2018-06-25T08:55:31.405Z,75.20
2018-06-25T08:58:00.040Z,75.40
2018-06-25T09:00:28.402Z,75.40
2018-06-25T09:02:56.794Z,75.10
2018-06-25T09:05:25.304Z,75.30
2018-06-25T09:07:53.698Z,75.80
2018-06-25T09:10:22.411Z,73.80
2018-06-25T09:12:51.943Z,74.10
2018-06-25T09:15:20.323Z,74.60
2018-06-25T09:17:48.661Z,73.30
2018-06-25T09:20:16.980Z,73.10
2018-06-25T09:22:45.316Z,73.50
2018-06-25T09:25:13.628Z,72.20
2018-06-25T09:27:49.159Z,71.30
2018-06-25T09:30:18.528Z,72.50
2018-06-25T09:32:46.921Z,71.60
2018-06-25T09:35:15.315Z,70.70
2018-06-25T09:37:43.616Z,69.20
2018-06-25T09:40:11.977Z,70.40
2018-06-25T09:42:40.294Z,69.20
2018-06-25T09:45:09.892Z,70.10
2018-06-25T09:47:38.207Z,69.80
2018-06-25T09:50:06.602Z,70.20
2018-06-25T09:52:34.945Z,68.50
2018-06-25T09:55:03.339Z,68.40
2018-06-25T09:57:31.661Z,67.30
2018-06-25T10:00:00.035Z,66.00
2018-06-25T10:02:28.371Z,67.20
2018-06-25T10:04:56.762Z,65.80
2018-06-25T10:09:53.420Z,64.40
2018-06-25T10:12:21.806Z,64.30
2018-06-25T10:14:50.121Z,64.10
2018-06-25T10:17:18.449Z,63.30
2018-06-25T10:22:14.875Z,65.30
2018-06-25T10:24:44.728Z,65.90
2018-06-25T10:27:13.098Z,66.00
2018-06-25T10:29:41.437Z,65.40
2018-06-25T10:32:09.764Z,65.70
2018-06-25T10:34:38.105Z,64.20
2018-06-25T10:37:06.441Z,62.50
2018-06-25T10:39:34.781Z,62.60
2018-06-25T10:42:03.137Z,62.80
2018-06-25T10:44:31.589Z,63.80
2018-06-25T10:46:59.905Z,64.00
2018-06-25T10:49:28.253Z,62.60
2018-06-25T10:51:56.581Z,62.90
2018-06-25T10:54:25.107Z,62.50
2018-06-25T10:56:53.423Z,59.60
2018-06-25T10:59:21.866Z,59.80
2018-06-25T11:01:50.137Z,59.20
2018-06-25T11:04:18.510Z,59.70
2018-06-25T11:06:46.826Z,59.70
2018-06-25T11:09:15.169Z,60.20
2018-06-25T11:11:43.536Z,60.00
2018-06-25T11:14:11.850Z,61.60
2018-06-25T11:16:40.239Z,59.80
2018-06-25T11:19:08.549Z,58.20
2018-06-25T11:21:36.864Z,57.80
2018-06-25T11:24:05.245Z,58.30
2018-06-25T11:26:33.592Z,57.00
2018-06-25T11:29:01.905Z,56.40
2018-06-25T11:31:30.242Z,55.50
2018-06-25T11:33:58.561Z,51.90
2018-06-25T11:36:26.906Z,52.70
2018-06-25T11:38:55.208Z,51.70
2018-06-25T11:43:51.564Z,49.50
2018-06-25T11:46:19.931Z,48.90
2018-06-25T11:48:48.249Z,49.40
2018-06-25T11:51:16.580Z,49.70
2018-06-25T11:53:44.929Z,49.40
2018-06-25T11:56:13.279Z,49.80
2018-06-25T11:58:41.641Z,48.50
2018-06-25T12:01:09.965Z,48.80
2018-06-25T12:03:38.291Z,48.70
2018-06-25T12:06:06.702Z,51.00
2018-06-25T12:08:35.035Z,53.60
2018-06-25T12:11:03.392Z,54.70
2018-06-25T12:13:31.707Z,54.70
2018-06-25T12:16:00.066Z,56.10
2018-06-25T12:18:28.392Z,54.50
2018-06-25T12:20:56.786Z,53.30
2018-06-25T12:23:25.160Z,53.60
2018-06-25T12:25:53.485Z,53.10
2018-06-25T12:28:21.814Z,54.00
2018-06-25T12:30:50.196Z,55.10
2018-06-25T12:33:18.540Z,53.00
2018-06-25T12:35:46.884Z,55.20
2018-06-25T12:38:15.196Z,52.20
2018-06-25T12:43:11.809Z,53.90
2018-06-25T12:45:40.169Z,52.50
2018-06-25T12:48:08.592Z,51.30
2018-06-25T12:50:36.900Z,51.10
2018-06-25T12:53:05.280Z,48.50
2018-06-25T12:55:33.612Z,49.30
2018-06-25T12:58:01.956Z,50.30
2018-06-25T13:00:30.283Z,50.20
2018-06-25T13:03:01.790Z,49.60
2018-06-25T13:05:30.152Z,49.40
2018-06-25T13:07:58.512Z,49.20
2018-06-25T13:10:26.843Z,50.40
2018-06-25T13:12:55.302Z,48.80
2018-06-25T13:15:23.640Z,48.50
2018-06-25T13:17:52.009Z,48.60
2018-06-25T13:20:20.409Z,49.60
2018-06-25T13:22:48.768Z,50.70
2018-06-25T13:25:17.092Z,50.40
2018-06-25T13:27:45.416Z,51.50
2018-06-25T13:30:13.770Z,52.60
2018-06-25T13:32:42.150Z,51.60
2018-06-25T13:35:10.469Z,50.90
2018-06-25T13:37:38.813Z,51.70
2018-06-25T13:40:07.161Z,49.90
2018-06-25T13:42:35.492Z,49.10
2018-06-25T13:45:04.036Z,51.60
2018-06-25T13:47:32.672Z,48.80
2018-06-25T13:50:01.004Z,49.70
2018-06-25T13:52:29.373Z,49.40
2018-06-25T13:54:57.771Z,47.90
2018-06-25T13:57:26.125Z,48.60
2018-06-25T13:59:54.526Z,47.70
2018-06-25T14:02:22.869Z,46.90
2018-06-25T14:04:51.236Z,48.00
2018-06-25T14:07:19.600Z,49.40
2018-06-25T14:09:47.988Z,48.50
2018-06-25T14:12:16.338Z,48.40
2018-06-25T14:14:44.684Z,47.90
2018-06-25T14:17:13.062Z,47.90
2018-06-25T14:22:09.706Z,46.00
2018-06-25T14:24:43.900Z,46.70
2018-06-25T14:27:13.005Z,46.90
2018-06-25T14:29:41.335Z,46.70
2018-06-25T14:32:14.789Z,49.20
2018-06-25T14:34:47.688Z,47.10
2018-06-25T14:39:44.140Z,48.20
2018-06-25T14:42:12.505Z,47.90
2018-06-25T14:44:40.830Z,47.50
2018-06-25T14:47:09.153Z,47.60
2018-06-25T14:49:37.496Z,46.50
2018-06-25T14:52:05.853Z,47.00
2018-06-25T14:54:34.196Z,45.30
2018-06-25T14:57:02.537Z,46.30
2018-06-25T14:59:30.896Z,45.20
2018-06-25T15:01:59.241Z,46.30
2018-06-25T15:04:27.616Z,46.20
2018-06-25T15:06:55.936Z,46.40
2018-06-25T15:09:24.281Z,48.40
2018-06-25T15:11:52.613Z,48.80
2018-06-25T15:14:20.984Z,48.30
2018-06-25T15:16:49.321Z,47.00
2018-06-25T15:19:17.688Z,46.20
2018-06-25T15:21:46.061Z,47.30
2018-06-25T15:24:14.426Z,47.50
2018-06-25T15:26:42.806Z,47.00
2018-06-25T15:29:11.162Z,47.30
2018-06-25T15:31:39.497Z,49.20
2018-06-25T15:34:07.861Z,49.30
2018-06-25T15:36:36.217Z,49.40
2018-06-25T15:39:07.861Z,49.50
2018-06-25T15:41:36.206Z,49.80
2018-06-25T15:46:32.693Z,48.10
2018-06-25T15:49:01.310Z,47.80
2018-06-25T15:51:29.693Z,48.90
2018-06-25T15:53:58.486Z,48.50
2018-06-25T15:56:26.905Z,46.50
2018-06-25T15:58:55.239Z,45.40
2018-06-25T16:01:23.565Z,45.60
2018-06-25T16:03:51.881Z,46.80
2018-06-25T16:06:20.200Z,48.60
2018-06-25T16:08:48.533Z,49.50
2018-06-25T16:11:17.000Z,49.20
2018-06-25T16:13:45.330Z,48.80
2018-06-25T16:16:13.680Z,49.90
2018-06-25T16:18:41.992Z,50.60
2018-06-25T16:21:10.321Z,49.80
2018-06-25T16:23:38.632Z,48.90
2018-06-25T16:26:06.988Z,48.40
2018-06-25T16:28:35.336Z,48.10
2018-06-25T16:31:03.717Z,48.50
2018-06-25T16:33:32.036Z,47.30
2018-06-25T16:36:00.393Z,48.80
2018-06-25T16:38:28.798Z,48.20
2018-06-25T16:40:57.157Z,47.20
2018-06-25T16:43:25.468Z,47.20
2018-06-25T16:45:53.815Z,47.50
2018-06-25T16:48:22.125Z,48.00
2018-06-25T16:50:50.481Z,46.90
2018-06-25T16:53:18.785Z,47.20
2018-06-25T16:55:47.137Z,45.90
2018-06-25T16:58:15.468Z,46.10
2018-06-25T17:00:43.836Z,46.60
2018-06-25T17:03:12.213Z,46.80
2018-06-25T17:05:40.597Z,45.90
2018-06-25T17:08:08.961Z,45.30
2018-06-25T17:10:37.372Z,45.50
2018-06-25T17:13:05.670Z,45.90
2018-06-25T17:15:34.036Z,44.70
2018-06-25T17:18:04.592Z,45.40
2018-06-25T17:20:33.032Z,44.90
2018-06-25T17:23:01.374Z,44.50
2018-06-25T17:25:29.733Z,45.20
2018-06-25T17:27:58.325Z,45.00
2018-06-25T17:30:26.706Z,44.00
2018-06-25T17:32:55.062Z,43.80
2018-06-25T17:35:23.409Z,44.40
2018-06-25T17:37:51.749Z,44.30
2018-06-25T17:40:20.118Z,44.40
2018-06-25T17:42:48.444Z,43.60
2018-06-25T17:45:16.804Z,44.20
2018-06-25T17:47:45.137Z,43.20
2018-06-25T17:50:18.609Z,43.70
2018-06-25T17:55:15.221Z,43.50
2018-06-25T17:57:43.583Z,43.70
2018-06-25T18:00:11.926Z,43.00
2018-06-25T18:02:40.294Z,43.00
2018-06-25T18:05:08.650Z,42.70
2018-06-25T18:07:37.026Z,43.50
2018-06-25T18:10:05.650Z,42.50
2018-06-25T18:12:33.997Z,42.30
2018-06-25T18:15:02.371Z,41.80
2018-06-25T18:17:30.735Z,41.70
2018-06-25T18:19:59.076Z,41.90
2018-06-25T18:22:27.448Z,42.00
2018-06-25T18:24:55.797Z,42.30
2018-06-25T18:27:24.148Z,42.70
2018-06-25T18:29:52.481Z,43.00
2018-06-25T18:32:20.864Z,43.40
2018-06-25T18:37:17.324Z,44.90
2018-06-25T18:39:45.676Z,45.70
2018-06-25T18:42:14.256Z,45.80
2018-06-25T18:44:42.860Z,45.90
2018-06-25T18:47:11.234Z,46.30
2018-06-25T18:49:39.580Z,46.50
2018-06-25T18:52:07.954Z,45.20
2018-06-25T18:54:36.328Z,46.30
2018-06-25T18:57:04.719Z,46.90
2018-06-25T18:59:33.068Z,47.70
2018-06-25T19:02:01.436Z,48.70
2018-06-25T19:04:29.780Z,49.30
2018-06-25T19:06:58.146Z,49.40
2018-06-25T19:09:26.472Z,50.10
2018-06-25T19:14:22.889Z,50.90
2018-06-25T19:16:51.234Z,51.40
2018-06-25T19:19:19.565Z,51.80
2018-06-25T19:21:47.948Z,52.10
2018-06-25T19:24:16.331Z,52.70
2018-06-25T19:26:44.712Z,53.00
2018-06-25T19:29:13.048Z,53.30
2018-06-25T19:31:41.388Z,53.70
2018-06-25T19:36:37.810Z,54.30
2018-06-25T19:39:09.459Z,54.60
2018-06-25T19:41:38.147Z,55.50
2018-06-25T19:44:06.486Z,55.10
2018-06-25T19:46:34.834Z,55.50
2018-06-25T19:49:03.213Z,55.90
2018-06-25T19:51:31.544Z,56.10
2018-06-25T19:53:59.881Z,56.60
2018-06-25T19:56:28.204Z,57.10
2018-06-25T19:58:56.556Z,57.40
2018-06-25T20:01:24.881Z,57.80
2018-06-25T20:03:53.241Z,58.10
2018-06-25T20:06:21.562Z,58.40
2018-06-25T20:08:49.926Z,58.80
2018-06-25T20:11:18.346Z,58.90
2018-06-25T20:13:46.637Z,59.10
2018-06-25T20:16:15.013Z,59.40
2018-06-25T20:18:43.342Z,59.50
2018-06-25T20:21:11.684Z,59.70
2018-06-25T20:23:40.032Z,59.80
2018-06-25T20:26:08.441Z,59.90
2018-06-25T20:28:36.736Z,60.10
2018-06-25T20:31:05.093Z,60.20
2018-06-25T20:33:33.434Z,60.40
2018-06-25T20:36:01.769Z,60.80
2018-06-25T20:38:30.109Z,60.80
2018-06-25T20:40:58.437Z,61.00
2018-06-25T20:43:26.800Z,61.40
2018-06-25T20:45:55.189Z,61.90
2018-06-25T20:48:23.525Z,62.30
2018-06-25T20:50:51.845Z,62.70
2018-06-25T20:53:20.270Z,63.50
2018-06-25T20:55:48.561Z,63.90
2018-06-25T20:58:16.905Z,64.10
2018-06-25T21:00:45.232Z,64.20
2018-06-25T21:03:13.597Z,64.30
2018-06-25T21:05:41.945Z,64.40
2018-06-25T21:08:10.260Z,64.60
2018-06-25T21:10:38.570Z,64.60
2018-06-25T21:13:06.892Z,64.50
2018-06-25T21:15:35.232Z,64.60
2018-06-25T21:18:03.568Z,64.70
2018-06-25T21:20:31.866Z,64.90
2018-06-25T21:23:00.200Z,64.90
2018-06-25T21:25:28.526Z,65.50
2018-06-25T21:27:56.837Z,65.20
2018-06-25T21:30:25.220Z,65.40
2018-06-25T21:32:53.557Z,65.40
2018-06-25T21:37:56.581Z,65.30
2018-06-25T21:40:24.957Z,65.50
2018-06-25T21:42:53.281Z,66.10
2018-06-25T21:45:21.612Z,66.90
2018-06-25T21:47:49.917Z,67.20
2018-06-25T21:50:18.530Z,67.40
2018-06-25T21:52:46.852Z,67.20
2018-06-25T21:55:15.182Z,67.20
2018-06-25T21:57:43.540Z,67.40
2018-06-25T22:00:13.359Z,67.50
2018-06-25T22:02:41.928Z,67.60
2018-06-25T22:05:10.317Z,68.20
2018-06-25T22:07:38.645Z,68.90
2018-06-25T22:10:07.705Z,69.30
2018-06-25T22:12:36.042Z,69.90
2018-06-25T22:15:05.024Z,70.10
2018-06-25T22:17:33.388Z,70.30
2018-06-25T22:20:01.769Z,70.10
2018-06-25T22:22:30.760Z,70.40
2018-06-25T22:24:59.304Z,70.30
2018-06-25T22:27:27.641Z,70.00
2018-06-25T22:29:56.001Z,70.40
2018-06-25T22:34:52.400Z,72.10
2018-06-25T22:37:20.765Z,71.90
2018-06-25T22:39:49.148Z,71.60
2018-06-25T22:42:18.613Z,71.60
2018-06-25T22:44:46.956Z,71.60
2018-06-25T22:47:15.276Z,71.60
2018-06-25T22:52:11.680Z,72.60
2018-06-25T22:54:40.021Z,73.60
2018-06-25T22:57:08.457Z,72.70
2018-06-25T22:59:36.802Z,73.80
2018-06-25T23:02:05.325Z,75.50
2018-06-25T23:04:33.713Z,76.60
2018-06-25T23:07:02.031Z,77.00
2018-06-25T23:09:30.381Z,77.30
2018-06-25T23:11:58.748Z,77.30
2018-06-25T23:14:27.061Z,77.50
2018-06-25T23:16:55.425Z,77.70
2018-06-25T23:19:23.748Z,77.90
2018-06-25T23:21:52.125Z,77.50
2018-06-25T23:24:20.736Z,77.30
2018-06-25T23:26:49.085Z,77.10
2018-06-25T23:29:17.576Z,76.50
2018-06-25T23:31:45.920Z,76.70
2018-06-25T23:34:14.244Z,76.60
2018-06-25T23:36:42.595Z,77.10
2018-06-25T23:39:11.959Z,76.90
2018-06-25T23:41:40.733Z,76.80
2018-06-25T23:44:09.053Z,77.10
2018-06-25T23:46:37.401Z,77.40
2018-06-25T23:49:05.881Z,77.90
2018-06-25T23:51:34.274Z,78.90
2018-06-25T23:54:02.605Z,79.20
2018-06-25T23:56:30.933Z,79.30
